Search for airport 
image banner adimage banner adimage banner ad
image banner ad

SIQZ - Fazenda Carolina Airport

Situé à Buritis, Brazil

ICAO - SIQZ, IATA -

Données fournies par Airmate  

Information générale

Coordonnées: S4°36'5" W42°36'37"
Élévation : 482 feet MSL.
Variation magnétique : -21° East
Voir autres Aéroports à Piauí

Données opérationnelles

Special qualification required
Heure actuelle UTC:
Heure actuelle locale:
METAR: SBTE 110600Z 34002KT CAVOK 24/23 Q1008
TAF: TAF SBTE 110339Z 1106/1118 00000KT 9999 SCT020 TN24/1109Z TX32/1116Z PROB30 1106/1109 5000 TSRA BKN015 FEW030CB BECMG 1109/1112 15007KT BECMG 1116/1118 TS BKN020 FEW030CB RMK PHQ
Voir NOTAMs / SUP AIP / TFR affectant cet aéroport [VIEW]
Fréquences de communication: [VIEW]

Pistes:

Identifiant RWYQFULongueur (ft)Largeur (ft)SurfaceLDA (ft)
10393765GRAVEL
28393765GRAVEL

Coordonnées de l'aéroport

Adresse: Buritis Brazil

Vue satellite de SIQZ